Time;durP1;ratioP1;P1;durP2;ratioP2;P2;SDS_P1;SDS_P2;PMS_P1;PMS_P2;Temp;Humidity;BMP_temperature;BMP_pressure;BME280_temperature;BME280_humidity;BME280_pressure;Samples;Min_cycle;Max_cycle;Signal;HPM_P1;HPM_P2
2023/03/06 00:02:05;;;;;;;;;;;1.20;99.90;;;;;;4873081;29;19932;-65
2023/03/06 00:04:37;;;;;;;;;;;1.20;99.90;;;;;;4872129;29;19928;-64
2023/03/06 00:07:08;;;;;;;;;;;1.20;99.90;;;;;;4866308;29;20362;-65
2023/03/06 00:09:40;;;;;;;;;;;1.10;99.90;;;;;;4867819;29;19935;-64
2023/03/06 00:12:07;;;;;;;;;;;1.10;99.90;;;;;;4870602;29;19932;-64
2023/03/06 00:14:38;;;;;;;;;;;1.10;99.90;;;;;;4871245;29;19936;-65
2023/03/06 00:17:10;;;;;;;;;;;1.10;99.90;;;;;;4875996;29;19932;-64
2023/03/06 00:19:37;;;;;;;;;;;1.10;99.90;;;;;;4878268;29;19928;-64
2023/03/06 00:22:12;;;;;;;;;;;1.00;99.90;;;;;;4869686;29;19940;-64
2023/03/06 00:24:43;;;;;;;;;;;1.00;99.90;;;;;;4861725;29;20309;-65
2023/03/06 00:27:10;;;;;;;;;;;1.00;99.90;;;;;;4876705;29;19927;-64
2023/03/06 00:29:43;;;;;;;;;;;1.00;99.90;;;;;;4865698;29;19935;-65
2023/03/06 00:32:15;;;;;;;;;;;1.00;99.90;;;;;;4860811;29;19928;-65
2023/03/06 00:34:42;;;;;;;;;;;1.00;99.90;;;;;;4866206;29;19932;-64
2023/03/06 00:37:09;;;;;;;;;;;1.10;99.90;;;;;;4869759;29;19975;-65
2023/03/06 00:39:40;;;;;;;;;;;1.00;99.90;;;;;;4877069;29;20397;-64
2023/03/06 00:42:14;;;;;;;;;;;1.10;99.90;;;;;;4854032;29;19935;-65
2023/03/06 00:44:46;;;;;;;;;;;1.10;99.90;;;;;;4877213;29;19936;-64
2023/03/06 00:47:17;;;;;;;;;;;1.00;99.90;;;;;;4875106;29;19932;-64
2023/03/06 00:49:51;;;;;;;;;;;1.00;99.90;;;;;;4876412;29;20418;-65
2023/03/06 00:52:23;;;;;;;;;;;1.00;99.90;;;;;;4875132;29;20031;-64
2023/03/06 00:54:54;;;;;;;;;;;0.90;99.90;;;;;;4858437;29;19928;-65
2023/03/06 00:57:26;;;;;;;;;;;0.90;99.90;;;;;;4876438;29;20622;-65
2023/03/06 00:59:58;;;;;;;;;;;0.90;99.90;;;;;;4876896;29;19928;-64
2023/03/06 01:02:30;;;;;;;;;;;0.90;99.90;;;;;;4876197;29;20007;-64
2023/03/06 01:05:02;;;;;;;;;;;0.80;99.90;;;;;;4872631;29;19987;-64
2023/03/06 01:07:36;;;;;;;;;;;0.80;99.90;;;;;;4876525;29;19932;-65
2023/03/06 01:10:08;;;;;;;;;;;0.80;99.90;;;;;;4862220;29;19936;-64
2023/03/06 01:12:40;;;;;;;;;;;0.80;99.90;;;;;;4871184;29;19928;-65
2023/03/06 01:15:12;;;;;;;;;;;0.80;99.90;;;;;;4874254;29;20390;-65
2023/03/06 01:17:44;;;;;;;;;;;0.80;99.90;;;;;;4875751;29;19928;-64
2023/03/06 01:20:16;;;;;;;;;;;0.80;99.90;;;;;;4872332;29;19940;-65
2023/03/06 01:22:48;;;;;;;;;;;0.80;99.90;;;;;;4874603;29;19959;-64
2023/03/06 01:25:20;;;;;;;;;;;0.80;99.90;;;;;;4845188;29;19927;-65
2023/03/06 01:27:52;;;;;;;;;;;0.80;99.90;;;;;;4875403;29;20420;-65
2023/03/06 01:30:23;;;;;;;;;;;0.80;99.90;;;;;;4866080;29;19932;-65
2023/03/06 01:32:55;;;;;;;;;;;0.80;99.90;;;;;;4873384;29;20397;-65
2023/03/06 01:35:27;;;;;;;;;;;0.70;99.90;;;;;;4867086;29;19932;-64
2023/03/06 01:37:58;;;;;;;;;;;0.70;99.90;;;;;;4875100;29;19927;-65
2023/03/06 01:40:34;;;;;;;;;;;0.70;99.90;;;;;;4864619;29;19987;-64
2023/03/06 01:43:27;;;;;;;;;;;0.70;99.90;;;;;;4875599;29;20482;-65
2023/03/06 01:46:17;;;;;;;;;;;0.70;99.90;;;;;;4873908;29;19985;-63
2023/03/06 01:49:11;;;;;;;;;;;0.70;99.90;;;;;;4860202;29;20309;-64
2023/03/06 01:51:43;;;;;;;;;;;0.70;99.90;;;;;;4867580;29;19932;-64
2023/03/06 01:54:18;;;;;;;;;;;0.70;99.90;;;;;;4876064;29;19987;-63
2023/03/06 01:56:52;;;;;;;;;;;0.70;99.90;;;;;;4874235;29;19928;-64
2023/03/06 01:59:25;;;;;;;;;;;0.70;99.90;;;;;;4868401;29;19928;-63
2023/03/06 02:01:52;;;;;;;;;;;0.70;99.90;;;;;;4875595;29;19935;-64
2023/03/06 02:04:24;;;;;;;;;;;0.80;99.90;;;;;;4874988;29;19928;-63
2023/03/06 02:06:57;;;;;;;;;;;0.70;99.90;;;;;;4874913;29;19928;-64
2023/03/06 02:09:33;;;;;;;;;;;0.80;99.90;;;;;;4873154;29;20018;-64
2023/03/06 02:12:07;;;;;;;;;;;0.80;99.90;;;;;;4873921;29;19932;-64
2023/03/06 02:14:40;;;;;;;;;;;0.80;99.90;;;;;;4866543;29;19939;-64
2023/03/06 02:17:13;;;;;;;;;;;0.80;99.90;;;;;;4860666;29;19928;-64
2023/03/06 02:19:51;;;;;;;;;;;0.80;99.90;;;;;;4873823;29;19932;-64
2023/03/06 02:22:27;;;;;;;;;;;0.80;99.90;;;;;;4873480;29;19935;-64
2023/03/06 02:25:08;;;;;;;;;;;0.80;99.90;;;;;;4862722;29;20386;-64
2023/03/06 02:27:40;;;;;;;;;;;0.80;99.90;;;;;;4859808;29;19927;-64
2023/03/06 02:30:14;;;;;;;;;;;0.80;99.90;;;;;;4865852;29;19928;-63
2023/03/06 02:32:45;;;;;;;;;;;0.90;99.90;;;;;;4862262;29;19932;-63
2023/03/06 02:35:18;;;;;;;;;;;0.80;99.90;;;;;;4870022;29;19998;-64
2023/03/06 02:37:50;;;;;;;;;;;0.90;99.90;;;;;;4873478;29;19935;-63
2023/03/06 02:40:23;;;;;;;;;;;0.90;99.90;;;;;;4861006;29;20298;-63
2023/03/06 02:42:56;;;;;;;;;;;0.90;99.90;;;;;;4875068;29;19963;-64
2023/03/06 02:45:34;;;;;;;;;;;0.90;99.90;;;;;;4851636;29;19932;-63
2023/03/06 02:48:06;;;;;;;;;;;0.90;99.90;;;;;;4875512;29;20406;-63
2023/03/06 02:50:38;;;;;;;;;;;1.00;99.90;;;;;;4873595;29;20270;-63
2023/03/06 02:53:11;;;;;;;;;;;0.90;99.90;;;;;;4854984;29;19938;-64
2023/03/06 02:55:43;;;;;;;;;;;0.90;99.90;;;;;;4864142;29;19932;-63
2023/03/06 02:58:18;;;;;;;;;;;0.90;99.90;;;;;;4875194;29;19928;-63
2023/03/06 03:00:50;;;;;;;;;;;0.90;99.90;;;;;;4873063;29;19980;-63
2023/03/06 03:03:21;;;;;;;;;;;1.00;99.90;;;;;;4876101;29;19997;-63
2023/03/06 03:05:54;;;;;;;;;;;1.00;99.90;;;;;;4878653;29;20329;-63
2023/03/06 03:08:30;;;;;;;;;;;1.00;99.90;;;;;;4878375;29;19938;-63
2023/03/06 03:11:03;;;;;;;;;;;0.90;99.90;;;;;;4876337;29;19933;-64
2023/03/06 03:13:41;;;;;;;;;;;1.00;99.90;;;;;;4878212;29;20378;-64
2023/03/06 03:16:18;;;;;;;;;;;0.90;99.90;;;;;;4885589;29;19932;-64
2023/03/06 03:18:50;;;;;;;;;;;0.90;99.90;;;;;;4873821;29;19935;-64
2023/03/06 03:21:22;;;;;;;;;;;1.00;99.90;;;;;;4876627;29;19942;-64
2023/03/06 03:23:54;;;;;;;;;;;1.00;99.90;;;;;;4876495;29;19932;-64
2023/03/06 03:26:26;;;;;;;;;;;1.00;99.90;;;;;;4874945;29;19964;-64
2023/03/06 03:29:04;;;;;;;;;;;0.90;99.90;;;;;;4874635;29;19955;-64
2023/03/06 03:31:35;;;;;;;;;;;0.90;99.90;;;;;;4868986;29;19984;-64
2023/03/06 03:34:07;;;;;;;;;;;0.90;99.90;;;;;;4877992;29;19967;-64
2023/03/06 03:36:40;;;;;;;;;;;1.00;99.90;;;;;;4876206;29;19932;-64
2023/03/06 03:39:14;;;;;;;;;;;1.00;99.90;;;;;;4860036;29;19928;-64
2023/03/06 03:41:46;;;;;;;;;;;1.00;99.90;;;;;;4872706;29;19968;-64
2023/03/06 03:44:18;;;;;;;;;;;1.00;99.90;;;;;;4862460;29;20445;-64
2023/03/06 03:46:50;;;;;;;;;;;0.90;99.90;;;;;;4852472;29;19935;-64
2023/03/06 03:49:23;;;;;;;;;;;0.90;99.90;;;;;;4877241;29;19928;-64
2023/03/06 03:51:55;;;;;;;;;;;0.90;99.90;;;;;;4874624;29;19931;-64
2023/03/06 03:54:29;;;;;;;;;;;0.90;99.90;;;;;;4860479;29;20022;-64
2023/03/06 03:57:01;;;;;;;;;;;0.90;99.90;;;;;;4875897;29;19934;-64
2023/03/06 03:59:32;;;;;;;;;;;0.90;99.90;;;;;;4877138;29;19953;-64
2023/03/06 04:02:20;;;;;;;;;;;0.80;99.90;;;;;;4867556;29;19931;-64
2023/03/06 04:05:13;;;;;;;;;;;0.80;99.90;;;;;;4877971;29;20537;-63
2023/03/06 04:07:46;;;;;;;;;;;0.80;99.90;;;;;;4859462;29;20440;-63
2023/03/06 04:10:14;;;;;;;;;;;0.80;99.90;;;;;;4867782;29;19928;-63
2023/03/06 04:12:41;;;;;;;;;;;0.80;99.90;;;;;;4860729;29;19932;-63
2023/03/06 04:15:13;;;;;;;;;;;0.80;99.90;;;;;;4862483;29;19928;-64
2023/03/06 04:17:46;;;;;;;;;;;0.80;99.90;;;;;;4867547;29;20022;-63
2023/03/06 04:20:18;;;;;;;;;;;0.80;99.90;;;;;;4878369;29;20295;-63
2023/03/06 04:22:45;;;;;;;;;;;0.80;99.90;;;;;;4877062;29;19939;-64
2023/03/06 04:25:12;;;;;;;;;;;0.80;99.90;;;;;;4876218;29;20297;-64
2023/03/06 04:27:44;;;;;;;;;;;0.70;99.90;;;;;;4864021;29;19939;-63
2023/03/06 04:30:16;;;;;;;;;;;0.80;99.90;;;;;;4870911;29;20578;-64
2023/03/06 04:32:47;;;;;;;;;;;0.80;99.90;;;;;;4868089;29;20286;-63
2023/03/06 04:35:20;;;;;;;;;;;0.80;99.90;;;;;;4874553;29;19928;-64
2023/03/06 04:37:57;;;;;;;;;;;0.80;99.90;;;;;;4869413;29;20398;-64
2023/03/06 04:40:35;;;;;;;;;;;0.80;99.90;;;;;;4871714;29;19938;-64
2023/03/06 04:43:02;;;;;;;;;;;0.80;99.90;;;;;;4873268;29;19971;-64
2023/03/06 04:45:34;;;;;;;;;;;0.80;99.90;;;;;;4875535;29;20388;-63
2023/03/06 04:48:06;;;;;;;;;;;0.90;99.90;;;;;;4870588;29;19980;-64
2023/03/06 04:50:38;;;;;;;;;;;0.90;99.90;;;;;;4873046;29;20398;-66
2023/03/06 04:53:10;;;;;;;;;;;0.90;99.90;;;;;;4876634;29;20320;-64
2023/03/06 04:55:42;;;;;;;;;;;0.90;99.90;;;;;;4868327;29;19950;-63
2023/03/06 04:58:13;;;;;;;;;;;0.80;99.90;;;;;;4861326;29;19961;-63
2023/03/06 05:00:45;;;;;;;;;;;0.80;99.90;;;;;;4865145;29;19927;-63
2023/03/06 05:03:17;;;;;;;;;;;1.10;99.90;;;;;;4873716;29;19956;-64
2023/03/06 05:05:48;;;;;;;;;;;1.10;99.90;;;;;;4873048;29;20004;-63
2023/03/06 05:08:20;;;;;;;;;;;1.00;99.90;;;;;;4867357;29;19928;-64
2023/03/06 05:10:56;;;;;;;;;;;0.90;99.90;;;;;;4868796;29;19943;-63
2023/03/06 05:13:28;;;;;;;;;;;0.90;99.90;;;;;;4863737;29;20000;-63
2023/03/06 05:16:00;;;;;;;;;;;0.80;99.90;;;;;;4876429;29;19928;-64
2023/03/06 05:18:32;;;;;;;;;;;0.80;99.90;;;;;;4888442;29;19975;-63
2023/03/06 05:20:59;;;;;;;;;;;0.80;99.90;;;;;;4870149;29;19938;-63
2023/03/06 05:23:33;;;;;;;;;;;0.70;99.90;;;;;;4870268;29;19928;-63
2023/03/06 05:26:08;;;;;;;;;;;0.80;99.90;;;;;;4871299;29;19928;-63
2023/03/06 05:28:40;;;;;;;;;;;0.70;99.90;;;;;;4874954;29;19934;-66
2023/03/06 05:31:12;;;;;;;;;;;0.70;99.90;;;;;;4876931;29;19963;-63
2023/03/06 05:33:43;;;;;;;;;;;0.70;99.90;;;;;;4874460;29;19932;-63
2023/03/06 05:36:15;;;;;;;;;;;0.80;99.90;;;;;;4869283;29;19984;-63
2023/03/06 05:38:47;;;;;;;;;;;0.80;99.90;;;;;;4876625;29;20416;-64
2023/03/06 05:41:19;;;;;;;;;;;0.80;99.90;;;;;;4871162;29;19936;-63
2023/03/06 05:43:51;;;;;;;;;;;0.80;99.90;;;;;;4870267;29;19988;-67
2023/03/06 05:46:23;;;;;;;;;;;0.80;99.90;;;;;;4868208;29;19999;-64
2023/03/06 05:48:56;;;;;;;;;;;0.80;99.90;;;;;;4855033;29;19932;-63
2023/03/06 05:51:28;;;;;;;;;;;0.80;99.90;;;;;;4870368;29;19935;-63
2023/03/06 05:54:00;;;;;;;;;;;0.80;99.90;;;;;;4876221;29;19928;-63
2023/03/06 05:56:31;;;;;;;;;;;0.80;99.90;;;;;;4856523;29;20458;-63
2023/03/06 05:59:03;;;;;;;;;;;0.80;99.90;;;;;;4881236;29;19936;-63
2023/03/06 06:01:35;;;;;;;;;;;0.80;99.90;;;;;;4874799;29;19932;-63
2023/03/06 06:04:07;;;;;;;;;;;0.80;99.90;;;;;;4868388;29;19932;-63
2023/03/06 06:06:39;;;;;;;;;;;0.80;99.90;;;;;;4860093;29;19954;-64
2023/03/06 06:09:11;;;;;;;;;;;0.90;99.90;;;;;;4869473;29;19927;-63
2023/03/06 06:11:43;;;;;;;;;;;0.90;99.90;;;;;;4870974;29;19984;-64
2023/03/06 06:14:15;;;;;;;;;;;0.90;99.90;;;;;;4874067;29;19932;-64
2023/03/06 06:16:47;;;;;;;;;;;0.90;99.90;;;;;;4870393;29;19939;-63
2023/03/06 06:19:19;;;;;;;;;;;1.00;99.90;;;;;;4869046;29;20011;-64
2023/03/06 06:21:52;;;;;;;;;;;1.00;99.90;;;;;;4871817;29;20024;-63
2023/03/06 06:24:21;;;;;;;;;;;1.00;99.90;;;;;;4874249;29;20350;-63
2023/03/06 06:26:53;;;;;;;;;;;1.00;99.90;;;;;;4868016;29;19981;-64
2023/03/06 06:29:26;;;;;;;;;;;1.00;99.90;;;;;;4865080;29;19934;-63
2023/03/06 06:31:54;;;;;;;;;;;1.10;99.90;;;;;;4864303;29;19939;-64
2023/03/06 06:34:26;;;;;;;;;;;1.10;99.90;;;;;;4861077;29;20306;-63
2023/03/06 06:36:58;;;;;;;;;;;1.10;99.90;;;;;;4885767;29;19984;-63
2023/03/06 06:39:31;;;;;;;;;;;1.10;99.90;;;;;;4873984;29;20019;-64
2023/03/06 06:42:03;;;;;;;;;;;1.10;99.90;;;;;;4869765;29;20397;-63
2023/03/06 06:44:35;;;;;;;;;;;1.10;99.90;;;;;;4864727;29;20015;-63
2023/03/06 06:47:07;;;;;;;;;;;1.10;99.90;;;;;;4863689;29;19942;-63
2023/03/06 06:49:38;;;;;;;;;;;1.10;99.90;;;;;;4866988;29;19935;-64
2023/03/06 06:52:11;;;;;;;;;;;1.10;99.90;;;;;;4861283;29;20405;-64
2023/03/06 06:54:37;;;;;;;;;;;1.10;99.90;;;;;;4872472;29;19928;-63
2023/03/06 06:57:10;;;;;;;;;;;1.10;99.90;;;;;;4873796;29;19927;-64
2023/03/06 06:59:42;;;;;;;;;;;1.10;99.90;;;;;;4859139;29;20394;-64
2023/03/06 07:02:14;;;;;;;;;;;1.10;99.90;;;;;;4867478;29;19932;-64
2023/03/06 07:04:46;;;;;;;;;;;1.10;99.90;;;;;;4874614;29;19928;-64
2023/03/06 07:07:17;;;;;;;;;;;1.10;99.90;;;;;;4866865;29;19928;-64
2023/03/06 07:09:44;;;;;;;;;;;1.10;99.90;;;;;;4868125;29;19935;-63
2023/03/06 07:12:16;;;;;;;;;;;1.10;99.90;;;;;;4875102;29;19928;-63
2023/03/06 07:14:43;;;;;;;;;;;1.10;99.90;;;;;;4870965;29;19955;-64
2023/03/06 07:17:15;;;;;;;;;;;1.10;99.90;;;;;;4876282;29;19928;-63
2023/03/06 07:19:48;;;;;;;;;;;1.10;99.90;;;;;;4868340;29;19928;-63
2023/03/06 07:22:20;;;;;;;;;;;1.10;99.90;;;;;;4870200;29;19938;-63
2023/03/06 07:24:51;;;;;;;;;;;1.10;99.90;;;;;;4875464;29;20000;-63
2023/03/06 07:27:25;;;;;;;;;;;1.10;99.90;;;;;;4866402;29;19932;-64
2023/03/06 07:29:56;;;;;;;;;;;1.10;99.90;;;;;;4873586;29;19935;-64
2023/03/06 07:32:28;;;;;;;;;;;1.10;99.90;;;;;;4864702;29;20031;-64
2023/03/06 07:35:00;;;;;;;;;;;1.10;99.90;;;;;;4870079;29;19932;-64
2023/03/06 07:37:32;;;;;;;;;;;1.20;99.90;;;;;;4874464;29;19928;-64
2023/03/06 07:40:05;;;;;;;;;;;1.20;99.90;;;;;;4873950;29;19936;-64
2023/03/06 07:42:39;;;;;;;;;;;1.30;99.90;;;;;;4877265;29;20409;-63
2023/03/06 07:45:15;;;;;;;;;;;1.30;99.90;;;;;;4865869;29;19935;-64
2023/03/06 07:47:50;;;;;;;;;;;1.40;99.90;;;;;;4864421;29;19996;-64
2023/03/06 07:50:17;;;;;;;;;;;1.40;99.90;;;;;;4871398;29;19939;-64
2023/03/06 07:52:49;;;;;;;;;;;1.40;99.90;;;;;;4867650;29;19932;-63
2023/03/06 07:55:20;;;;;;;;;;;1.50;99.90;;;;;;4862341;29;19936;-63
2023/03/06 07:57:53;;;;;;;;;;;1.50;99.90;;;;;;4874629;29;19936;-63
2023/03/06 08:00:27;;;;;;;;;;;1.50;99.90;;;;;;4872075;29;19977;-63
2023/03/06 08:03:00;;;;;;;;;;;1.50;99.90;;;;;;4867164;29;19954;-63
2023/03/06 08:05:32;;;;;;;;;;;1.50;99.90;;;;;;4869805;29;19935;-63
2023/03/06 08:08:04;;;;;;;;;;;1.60;99.90;;;;;;4874212;29;20022;-64
2023/03/06 08:10:36;;;;;;;;;;;1.60;99.90;;;;;;4870468;29;19932;-64
2023/03/06 08:13:08;;;;;;;;;;;1.60;99.90;;;;;;4878719;29;19931;-63
2023/03/06 08:15:35;;;;;;;;;;;1.70;99.90;;;;;;4868450;29;19928;-63
2023/03/06 08:18:07;;;;;;;;;;;1.70;99.90;;;;;;4872413;29;20015;-63
2023/03/06 08:20:39;;;;;;;;;;;1.70;99.90;;;;;;4871190;29;19981;-63
2023/03/06 08:23:06;;;;;;;;;;;1.60;99.90;;;;;;4878237;29;19956;-63
2023/03/06 08:25:38;;;;;;;;;;;1.60;99.90;;;;;;4871915;29;19960;-63
2023/03/06 08:28:10;;;;;;;;;;;1.60;99.90;;;;;;4876918;29;20341;-63
2023/03/06 08:30:41;;;;;;;;;;;1.60;99.90;;;;;;4872820;29;19975;-63
2023/03/06 08:33:13;;;;;;;;;;;1.60;99.90;;;;;;4875632;29;19928;-63
2023/03/06 08:35:45;;;;;;;;;;;1.60;99.90;;;;;;4872865;29;19927;-63
2023/03/06 08:38:17;;;;;;;;;;;1.60;99.90;;;;;;4874337;29;19928;-63
2023/03/06 08:40:49;;;;;;;;;;;1.50;99.90;;;;;;4879348;29;19928;-63
2023/03/06 08:43:21;;;;;;;;;;;1.50;99.90;;;;;;4876102;29;19939;-63
2023/03/06 08:45:54;;;;;;;;;;;1.50;99.90;;;;;;4874162;29;19954;-63
2023/03/06 08:48:26;;;;;;;;;;;1.50;99.90;;;;;;4867633;29;20362;-64
2023/03/06 08:50:58;;;;;;;;;;;1.60;99.90;;;;;;4872814;29;20026;-63
2023/03/06 08:53:25;;;;;;;;;;;1.60;99.90;;;;;;4869040;29;19936;-64
2023/03/06 08:55:52;;;;;;;;;;;1.60;99.90;;;;;;4861915;29;20015;-63
2023/03/06 08:58:25;;;;;;;;;;;1.70;99.90;;;;;;4874869;29;19928;-64
2023/03/06 09:00:59;;;;;;;;;;;1.70;99.90;;;;;;4875389;29;19935;-64
2023/03/06 09:03:30;;;;;;;;;;;1.80;99.90;;;;;;4868140;29;19936;-63
2023/03/06 09:06:03;;;;;;;;;;;1.80;99.90;;;;;;4870952;29;19995;-63
2023/03/06 09:08:29;;;;;;;;;;;1.80;99.90;;;;;;4875412;29;19963;-64
2023/03/06 09:10:56;;;;;;;;;;;1.80;99.90;;;;;;4873246;29;19928;-64
2023/03/06 09:13:28;;;;;;;;;;;1.80;99.90;;;;;;4873138;29;20035;-63
2023/03/06 09:16:00;;;;;;;;;;;1.80;99.90;;;;;;4883111;29;19932;-63
2023/03/06 09:18:32;;;;;;;;;;;1.80;99.90;;;;;;4874414;29;19928;-63
2023/03/06 09:21:04;;;;;;;;;;;1.70;99.90;;;;;;4869877;29;20317;-63
2023/03/06 09:23:38;;;;;;;;;;;1.80;99.90;;;;;;4873259;29;19934;-64
2023/03/06 09:26:11;;;;;;;;;;;1.80;99.90;;;;;;4874938;29;20019;-64
2023/03/06 09:28:43;;;;;;;;;;;1.80;99.90;;;;;;4873529;29;20027;-64
2023/03/06 09:31:17;;;;;;;;;;;1.90;99.90;;;;;;4875671;29;20282;-63
2023/03/06 09:33:49;;;;;;;;;;;2.00;99.90;;;;;;4865370;29;20312;-63
2023/03/06 09:36:21;;;;;;;;;;;2.00;99.90;;;;;;4869021;29;19935;-63
2023/03/06 09:38:49;;;;;;;;;;;2.00;99.90;;;;;;4870894;29;19935;-63
2023/03/06 09:41:20;;;;;;;;;;;2.00;99.90;;;;;;4876837;29;19936;-64
2023/03/06 09:43:54;;;;;;;;;;;2.00;99.90;;;;;;4868691;29;19931;-63
2023/03/06 09:46:29;;;;;;;;;;;2.00;99.90;;;;;;4875902;29;19994;-63
2023/03/06 09:49:09;;;;;;;;;;;2.10;99.90;;;;;;4870630;29;19927;-63
2023/03/06 09:51:44;;;;;;;;;;;2.10;99.90;;;;;;4866323;29;19928;-63
2023/03/06 09:54:20;;;;;;;;;;;2.10;99.90;;;;;;4873432;29;20337;-64
2023/03/06 09:56:52;;;;;;;;;;;2.20;99.90;;;;;;4868801;29;19932;-64
2023/03/06 09:59:24;;;;;;;;;;;2.10;99.90;;;;;;4872110;29;19928;-64
2023/03/06 10:02:12;;;;;;;;;;;2.20;99.90;;;;;;4870864;29;19938;-63
2023/03/06 10:04:44;;;;;;;;;;;2.20;99.90;;;;;;4859707;29;20023;-64
2023/03/06 10:07:22;;;;;;;;;;;2.20;99.90;;;;;;4874636;29;19992;-63
2023/03/06 10:10:00;;;;;;;;;;;2.30;99.90;;;;;;4875640;29;19928;-63
2023/03/06 10:12:35;;;;;;;;;;;2.20;99.90;;;;;;4873457;29;19935;-64
2023/03/06 10:15:13;;;;;;;;;;;2.20;99.90;;;;;;4867894;29;19975;-63
2023/03/06 10:17:44;;;;;;;;;;;2.20;99.90;;;;;;4874236;29;19935;-64
2023/03/06 10:20:24;;;;;;;;;;;2.30;99.90;;;;;;4871639;29;19928;-63
2023/03/06 10:22:56;;;;;;;;;;;2.30;99.90;;;;;;4868739;29;19929;-63
2023/03/06 10:25:34;;;;;;;;;;;2.30;99.90;;;;;;4865200;29;19984;-64
2023/03/06 10:28:16;;;;;;;;;;;2.30;99.90;;;;;;4863425;29;19928;-63
2023/03/06 10:30:48;;;;;;;;;;;2.30;99.90;;;;;;4857550;29;19932;-64
2023/03/06 10:33:19;;;;;;;;;;;2.40;99.90;;;;;;4873442;29;20457;-63
2023/03/06 10:35:48;;;;;;;;;;;2.30;99.90;;;;;;4874094;29;19928;-64
2023/03/06 10:38:25;;;;;;;;;;;2.30;99.90;;;;;;4867016;29;20031;-64
2023/03/06 10:40:59;;;;;;;;;;;2.30;99.90;;;;;;4872951;29;19932;-64
2023/03/06 10:43:32;;;;;;;;;;;2.30;99.90;;;;;;4875548;29;20349;-64
2023/03/06 10:46:06;;;;;;;;;;;2.30;99.90;;;;;;4870302;29;19932;-63
2023/03/06 10:48:40;;;;;;;;;;;2.40;99.90;;;;;;4871329;29;20031;-64
2023/03/06 10:51:24;;;;;;;;;;;2.50;99.90;;;;;;4863553;29;19935;-63
2023/03/06 10:53:55;;;;;;;;;;;2.50;99.90;;;;;;4869069;29;19928;-63
2023/03/06 10:56:29;;;;;;;;;;;2.50;99.90;;;;;;4871117;29;20469;-62
2023/03/06 10:59:06;;;;;;;;;;;2.50;99.90;;;;;;4873438;29;19934;-63
2023/03/06 11:01:40;;;;;;;;;;;2.50;99.90;;;;;;4867539;29;20344;-63
2023/03/06 11:04:22;;;;;;;;;;;2.50;99.90;;;;;;4872965;29;19997;-63
2023/03/06 11:07:14;;;;;;;;;;;2.60;99.90;;;;;;4861896;29;20477;-63
2023/03/06 11:09:55;;;;;;;;;;;2.50;99.90;;;;;;4872484;29;19928;-63
2023/03/06 11:12:31;;;;;;;;;;;2.50;99.90;;;;;;4865162;29;19928;-63
2023/03/06 11:15:05;;;;;;;;;;;2.60;99.90;;;;;;4870082;29;19927;-63
2023/03/06 11:17:47;;;;;;;;;;;2.60;99.90;;;;;;4875772;29;19928;-63
2023/03/06 11:20:13;;;;;;;;;;;2.70;99.90;;;;;;4875856;29;19955;-65
2023/03/06 11:22:48;;;;;;;;;;;2.70;99.90;;;;;;4886168;29;19953;-64
2023/03/06 11:25:21;;;;;;;;;;;2.60;99.90;;;;;;4873038;29;20400;-64
2023/03/06 11:27:56;;;;;;;;;;;2.70;99.90;;;;;;4874691;29;19976;-63
2023/03/06 11:30:34;;;;;;;;;;;2.80;99.90;;;;;;4863689;29;19939;-63
2023/03/06 11:33:29;;;;;;;;;;;2.80;99.90;;;;;;4878284;29;19928;-63
2023/03/06 11:35:58;;;;;;;;;;;2.80;99.90;;;;;;4870365;29;19928;-64
2023/03/06 11:38:50;;;;;;;;;;;2.90;99.90;;;;;;4867821;29;19927;-63
2023/03/06 11:41:41;;;;;;;;;;;3.00;99.90;;;;;;4866962;29;20314;-63
2023/03/06 11:44:18;;;;;;;;;;;3.10;99.90;;;;;;4878566;29;19932;-63
2023/03/06 11:47:13;;;;;;;;;;;3.10;99.90;;;;;;4870843;29;19938;-63
2023/03/06 11:49:49;;;;;;;;;;;3.20;99.90;;;;;;4869013;29;19928;-63
2023/03/06 11:52:24;;;;;;;;;;;3.20;99.90;;;;;;4865188;29;19940;-63
2023/03/06 11:54:56;;;;;;;;;;;3.30;99.90;;;;;;4876323;29;19928;-63
2023/03/06 11:57:42;;;;;;;;;;;3.40;99.90;;;;;;4872699;29;19928;-63
2023/03/06 12:00:17;;;;;;;;;;;3.50;99.90;;;;;;4875342;29;20350;-63
2023/03/06 12:03:08;;;;;;;;;;;3.60;99.90;;;;;;4870276;29;19939;-63
2023/03/06 12:06:06;;;;;;;;;;;3.50;99.90;;;;;;4865640;29;20393;-64
2023/03/06 12:08:43;;;;;;;;;;;3.50;99.90;;;;;;4865392;29;19983;-63
2023/03/06 12:11:23;;;;;;;;;;;3.50;99.90;;;;;;4874793;29;19932;-63
2023/03/06 12:14:03;;;;;;;;;;;3.60;99.90;;;;;;4862745;29;20305;-63
2023/03/06 12:16:34;;;;;;;;;;;3.70;99.90;;;;;;4870544;29;20386;-63
2023/03/06 12:19:25;;;;;;;;;;;3.70;99.90;;;;;;4874796;29;19931;-63
2023/03/06 12:21:56;;;;;;;;;;;3.80;99.90;;;;;;4874304;29;19931;-63
2023/03/06 12:24:35;;;;;;;;;;;3.80;99.90;;;;;;4875263;29;19931;-63
2023/03/06 12:27:26;;;;;;;;;;;3.80;99.90;;;;;;4876543;29;19948;-63
2023/03/06 12:30:03;;;;;;;;;;;3.80;99.90;;;;;;4870082;29;19983;-63
2023/03/06 12:32:43;;;;;;;;;;;3.90;99.90;;;;;;4876603;29;19988;-63
2023/03/06 12:35:23;;;;;;;;;;;3.90;99.90;;;;;;4874916;29;19928;-64
2023/03/06 12:38:18;;;;;;;;;;;4.00;99.90;;;;;;4871565;29;19928;-63
2023/03/06 12:41:08;;;;;;;;;;;4.10;99.90;;;;;;4877458;29;19939;-63
2023/03/06 12:43:38;;;;;;;;;;;4.00;99.90;;;;;;4862592;29;19928;-62
2023/03/06 12:46:12;;;;;;;;;;;4.00;99.90;;;;;;4865289;29;19939;-64
2023/03/06 12:48:47;;;;;;;;;;;3.90;99.90;;;;;;4869092;29;19927;-63
2023/03/06 12:51:20;;;;;;;;;;;3.90;99.90;;;;;;4865289;29;20409;-63
2023/03/06 12:53:52;;;;;;;;;;;4.00;99.90;;;;;;4863714;29;20373;-63
2023/03/06 12:56:25;;;;;;;;;;;4.00;99.90;;;;;;4873295;29;20396;-63
2023/03/06 12:59:01;;;;;;;;;;;4.00;99.90;;;;;;4874255;29;19932;-63
2023/03/06 13:01:52;;;;;;;;;;;4.00;99.90;;;;;;4873762;29;20660;-63
2023/03/06 13:04:37;;;;;;;;;;;4.00;99.90;;;;;;4872750;29;20405;-63
2023/03/06 13:07:18;;;;;;;;;;;4.00;99.90;;;;;;4873921;29;19940;-63
2023/03/06 13:09:57;;;;;;;;;;;3.90;99.90;;;;;;4868728;29;19932;-63
2023/03/06 13:12:30;;;;;;;;;;;4.00;99.90;;;;;;4874020;29;19928;-63
2023/03/06 13:15:25;;;;;;;;;;;4.10;99.90;;;;;;4886336;29;19928;-63
2023/03/06 13:17:57;;;;;;;;;;;4.20;99.90;;;;;;4871280;29;20050;-63
2023/03/06 13:20:27;;;;;;;;;;;4.20;99.90;;;;;;4872495;29;19932;-63
2023/03/06 13:23:18;;;;;;;;;;;4.30;99.90;;;;;;4874320;29;19955;-63
2023/03/06 13:25:50;;;;;;;;;;;4.30;99.90;;;;;;4873617;29;19936;-65
2023/03/06 13:28:36;;;;;;;;;;;4.40;99.90;;;;;;4874472;29;20744;-63
2023/03/06 13:31:08;;;;;;;;;;;4.50;99.90;;;;;;4870664;29;19943;-63
2023/03/06 13:33:43;;;;;;;;;;;4.40;99.90;;;;;;4875974;29;19932;-63
2023/03/06 13:36:15;;;;;;;;;;;4.40;99.90;;;;;;4874279;29;19928;-63
2023/03/06 13:38:47;;;;;;;;;;;4.40;99.90;;;;;;4874312;29;19935;-63
2023/03/06 13:41:21;;;;;;;;;;;4.30;99.90;;;;;;4874120;29;19999;-63
2023/03/06 13:43:55;;;;;;;;;;;4.40;99.90;;;;;;4870432;29;19934;-64
2023/03/06 13:46:26;;;;;;;;;;;4.30;99.90;;;;;;4860678;29;19991;-64
2023/03/06 13:49:03;;;;;;;;;;;4.30;99.90;;;;;;4851550;29;20371;-64
2023/03/06 13:52:05;;;;;;;;;;;4.40;99.90;;;;;;4873921;29;20313;-63
2023/03/06 13:54:51;;;;;;;;;;;4.40;99.90;;;;;;4878499;29;19935;-63
2023/03/06 13:57:26;;;;;;;;;;;4.50;99.90;;;;;;4866484;29;19929;-64
2023/03/06 14:00:03;;;;;;;;;;;4.50;99.90;;;;;;4868998;29;19928;-64
2023/03/06 14:02:54;;;;;;;;;;;4.50;99.90;;;;;;4876088;29;19931;-63
2023/03/06 14:05:46;;;;;;;;;;;4.50;99.90;;;;;;4872689;29;19927;-63
2023/03/06 14:08:29;;;;;;;;;;;4.40;99.90;;;;;;4866406;29;19932;-64
2023/03/06 14:11:02;;;;;;;;;;;4.30;99.90;;;;;;4872815;29;19935;-65
2023/03/06 14:13:36;;;;;;;;;;;4.40;99.90;;;;;;4875836;29;20316;-64
2023/03/06 14:16:24;;;;;;;;;;;4.50;99.90;;;;;;4867519;29;19928;-63
2023/03/06 14:18:57;;;;;;;;;;;4.50;99.90;;;;;;4876233;29;20401;-63
2023/03/06 14:21:39;;;;;;;;;;;4.50;99.90;;;;;;4870473;29;19928;-63
2023/03/06 14:24:15;;;;;;;;;;;4.60;99.90;;;;;;4854455;29;19928;-63
2023/03/06 14:26:48;;;;;;;;;;;4.80;99.90;;;;;;4871384;29;20023;-64
2023/03/06 14:29:19;;;;;;;;;;;4.80;99.90;;;;;;4872219;29;19928;-63
2023/03/06 14:31:52;;;;;;;;;;;5.00;99.90;;;;;;4874191;29;19948;-63
2023/03/06 14:34:24;;;;;;;;;;;5.10;99.90;;;;;;4870257;29;19939;-63
2023/03/06 14:37:00;;;;;;;;;;;5.00;99.90;;;;;;4867180;29;19937;-63
2023/03/06 14:39:36;;;;;;;;;;;4.80;99.90;;;;;;4862114;29;20030;-64
2023/03/06 14:42:14;;;;;;;;;;;4.70;99.90;;;;;;4873061;29;20030;-63
2023/03/06 14:44:46;;;;;;;;;;;4.70;99.90;;;;;;4867581;29;19928;-63
2023/03/06 14:47:25;;;;;;;;;;;4.60;99.90;;;;;;4867152;29;19927;-63
2023/03/06 14:50:10;;;;;;;;;;;4.40;99.90;;;;;;4877677;29;19928;-63
2023/03/06 14:52:37;;;;;;;;;;;4.30;99.90;;;;;;4877447;29;20027;-63
2023/03/06 14:55:10;;;;;;;;;;;4.20;99.90;;;;;;4865158;29;19939;-63
2023/03/06 14:57:42;;;;;;;;;;;4.10;99.90;;;;;;4872017;29;20417;-65
2023/03/06 15:00:17;;;;;;;;;;;4.10;99.90;;;;;;4886516;29;19932;-63
2023/03/06 15:02:49;;;;;;;;;;;4.20;99.90;;;;;;4877082;29;19935;-63
2023/03/06 15:05:26;;;;;;;;;;;4.10;99.90;;;;;;4870739;29;19940;-63
2023/03/06 15:08:00;;;;;;;;;;;4.30;99.90;;;;;;4876628;29;19935;-63
2023/03/06 15:10:33;;;;;;;;;;;4.30;99.90;;;;;;4873254;29;19932;-63
2023/03/06 15:13:09;;;;;;;;;;;4.40;99.90;;;;;;4860179;29;19980;-63